createdAt,value
2023-04-09T00:01:38.612Z,101156.65
2023-04-09T00:04:05.158Z,101157.48
2023-04-09T00:06:31.703Z,101155.09
2023-04-09T00:08:58.009Z,101155.13
2023-04-09T00:11:25.028Z,101154.28
2023-04-09T00:13:51.347Z,101148.89
2023-04-09T00:16:17.874Z,101148.46
2023-04-09T00:18:44.183Z,101147.66
2023-04-09T00:21:10.603Z,101145.11
2023-04-09T00:23:37.091Z,101141.58
2023-04-09T00:26:03.563Z,101137.92
2023-04-09T00:28:29.845Z,101132.21
2023-04-09T00:30:56.633Z,101128.40
2023-04-09T00:33:22.999Z,101133.12
2023-04-09T00:35:49.332Z,101134.25
2023-04-09T00:38:15.793Z,101128.17
2023-04-09T00:40:42.159Z,101126.86
2023-04-09T00:43:08.902Z,101126.92
2023-04-09T00:45:35.769Z,101125.41
2023-04-09T00:48:02.227Z,101122.28
2023-04-09T00:50:28.649Z,101118.30
2023-04-09T00:52:55.539Z,101115.32
2023-04-09T00:55:21.891Z,101113.92
2023-04-09T00:57:48.411Z,101109.27
2023-04-09T01:00:15.060Z,101113.97
2023-04-09T01:02:42.421Z,101114.46
2023-04-09T01:05:10.814Z,101114.11
2023-04-09T01:07:55.542Z,101112.50
2023-04-09T01:10:25.093Z,101112.41
2023-04-09T01:13:03.590Z,101114.88
2023-04-09T01:15:33.585Z,101113.45
2023-04-09T01:18:07.094Z,101116.23
2023-04-09T01:20:44.486Z,101118.10
2023-04-09T01:23:19.210Z,101120.05
2023-04-09T01:26:04.028Z,101120.45
2023-04-09T01:28:46.917Z,101122.30
2023-04-09T01:31:16.522Z,101121.39
2023-04-09T01:33:43.543Z,101122.94
2023-04-09T01:36:10.721Z,101123.77
2023-04-09T01:38:40.564Z,101122.73
2023-04-09T01:41:10.902Z,101125.50
2023-04-09T01:43:37.904Z,101124.50
2023-04-09T01:46:04.407Z,101124.02
2023-04-09T01:48:32.450Z,101126.95
2023-04-09T01:50:59.189Z,101126.91
2023-04-09T01:53:28.600Z,101129.71
2023-04-09T01:55:58.120Z,101132.48
2023-04-09T01:58:25.898Z,101134.11
2023-04-09T02:00:58.136Z,101139.73
2023-04-09T02:03:30.665Z,101140.75
2023-04-09T02:06:07.217Z,101145.51
2023-04-09T02:08:34.782Z,101144.09
2023-04-09T02:11:10.007Z,101150.27
2023-04-09T02:13:37.424Z,101149.73
2023-04-09T02:16:05.296Z,101151.85
2023-04-09T02:18:32.018Z,101151.05
2023-04-09T02:20:59.073Z,101151.35
2023-04-09T02:23:26.729Z,101153.66
2023-04-09T02:25:53.727Z,101145.71
2023-04-09T02:28:20.230Z,101144.79
2023-04-09T02:30:46.696Z,101141.80
2023-04-09T02:33:13.332Z,101141.83
2023-04-09T02:35:40.346Z,101138.91
2023-04-09T02:38:12.964Z,101140.20
2023-04-09T02:40:40.627Z,101142.55
2023-04-09T02:43:07.998Z,101141.38
2023-04-09T02:45:34.611Z,101144.49
2023-04-09T02:48:01.331Z,101141.02
2023-04-09T02:50:29.471Z,101143.70
2023-04-09T02:52:56.076Z,101142.41
2023-04-09T02:55:22.477Z,101138.91
2023-04-09T02:57:48.896Z,101140.58
2023-04-09T03:00:15.247Z,101141.99
2023-04-09T03:02:42.057Z,101142.57
2023-04-09T03:05:08.821Z,101143.02
2023-04-09T03:07:35.261Z,101139.36
2023-04-09T03:10:01.710Z,101137.16
2023-04-09T03:12:28.067Z,101136.89
2023-04-09T03:14:54.871Z,101137.39
2023-04-09T03:17:21.316Z,101133.52
2023-04-09T03:19:47.666Z,101133.79
2023-04-09T03:22:15.722Z,101130.65
2023-04-09T03:24:42.467Z,101130.54
2023-04-09T03:27:08.793Z,101130.02
2023-04-09T03:29:35.385Z,101125.36
2023-04-09T03:32:01.901Z,101126.11
2023-04-09T03:34:28.414Z,101127.16
2023-04-09T03:36:56.134Z,101126.89
2023-04-09T03:39:25.840Z,101126.20
2023-04-09T03:41:52.499Z,101122.48
2023-04-09T03:44:18.800Z,101123.78
2023-04-09T03:47:14.782Z,101125.34
2023-04-09T03:49:41.282Z,101122.58
2023-04-09T03:52:18.262Z,101121.30
2023-04-09T03:54:47.548Z,101117.12
2023-04-09T03:57:17.795Z,101115.58
2023-04-09T03:59:45.356Z,101115.69
2023-04-09T04:02:12.341Z,101114.84
2023-04-09T04:04:41.772Z,101110.88
2023-04-09T04:07:09.502Z,101114.96
2023-04-09T04:09:40.577Z,101118.12
2023-04-09T04:12:10.599Z,101119.00
2023-04-09T04:14:45.013Z,101124.97
2023-04-09T04:17:22.664Z,101129.88
2023-04-09T04:19:49.543Z,101131.75
2023-04-09T04:22:15.870Z,101135.13
2023-04-09T04:24:44.539Z,101135.60
2023-04-09T04:27:14.600Z,101138.75
2023-04-09T04:29:40.980Z,101143.30
2023-04-09T04:32:20.544Z,101141.23
2023-04-09T04:34:49.408Z,101151.75
2023-04-09T04:37:21.035Z,101149.05
2023-04-09T04:39:48.263Z,101152.88
2023-04-09T04:42:16.596Z,101155.97
2023-04-09T04:44:44.333Z,101158.83
2023-04-09T04:47:15.742Z,101161.21
2023-04-09T04:49:42.253Z,101162.20
2023-04-09T04:52:08.998Z,101158.32
2023-04-09T04:54:35.846Z,101157.73
2023-04-09T04:57:02.821Z,101159.77
2023-04-09T04:59:40.509Z,101161.86
2023-04-09T05:02:09.316Z,101164.77
2023-04-09T05:04:47.768Z,101165.34
2023-04-09T05:07:15.486Z,101168.38
2023-04-09T05:09:47.821Z,101165.73
2023-04-09T05:12:17.251Z,101165.57
2023-04-09T05:14:45.006Z,101164.25
2023-04-09T05:17:11.472Z,101169.66
2023-04-09T05:19:43.024Z,101167.38
2023-04-09T05:22:10.195Z,101169.85
2023-04-09T05:24:36.576Z,101169.22
2023-04-09T05:27:03.046Z,101169.77
2023-04-09T05:29:29.654Z,101163.73
2023-04-09T05:31:56.014Z,101162.59
2023-04-09T05:34:35.073Z,101166.45
2023-04-09T05:37:01.529Z,101163.66
2023-04-09T05:39:27.832Z,101164.51
2023-04-09T05:41:55.501Z,101167.22
2023-04-09T05:44:21.988Z,101167.08
2023-04-09T05:46:49.104Z,101169.02
2023-04-09T05:49:17.771Z,101173.17
2023-04-09T05:51:45.859Z,101169.61
2023-04-09T05:54:14.286Z,101172.84
2023-04-09T05:56:42.623Z,101172.63
2023-04-09T05:59:09.048Z,101171.04
2023-04-09T06:01:35.561Z,101173.41
2023-04-09T06:04:03.731Z,101176.51
2023-04-09T06:06:30.462Z,101176.23
2023-04-09T06:08:56.772Z,101178.41
2023-04-09T06:11:23.082Z,101180.23
2023-04-09T06:13:49.468Z,101178.88
2023-04-09T06:16:16.229Z,101177.20
2023-04-09T06:18:42.625Z,101178.42
2023-04-09T06:21:09.030Z,101178.23
2023-04-09T06:23:36.147Z,101181.98
2023-04-09T06:26:02.643Z,101180.48
2023-04-09T06:28:29.442Z,101179.97
2023-04-09T06:30:55.838Z,101176.42
2023-04-09T06:33:22.345Z,101176.52
2023-04-09T06:35:48.939Z,101176.24
2023-04-09T06:38:15.956Z,101175.73
2023-04-09T06:40:42.844Z,101174.34
2023-04-09T06:43:09.938Z,101175.71
2023-04-09T06:45:41.958Z,101178.20
2023-04-09T06:48:08.556Z,101175.33
2023-04-09T06:50:35.268Z,101175.78
2023-04-09T06:53:01.821Z,101177.76
2023-04-09T06:55:28.620Z,101181.77
2023-04-09T06:57:55.263Z,101184.70
2023-04-09T07:00:22.470Z,101185.77
2023-04-09T07:02:49.979Z,101186.52
2023-04-09T07:05:16.542Z,101189.48
2023-04-09T07:07:42.982Z,101190.92
2023-04-09T07:10:09.492Z,101187.92
2023-04-09T07:12:35.915Z,101188.45
2023-04-09T07:15:05.069Z,101194.30
2023-04-09T07:17:31.865Z,101193.83
2023-04-09T07:19:58.214Z,101196.23
2023-04-09T07:22:26.685Z,101196.23
2023-04-09T07:24:54.452Z,101198.73
2023-04-09T07:27:22.590Z,101196.11
2023-04-09T07:29:49.157Z,101192.67
2023-04-09T07:32:16.134Z,101194.20
2023-04-09T07:34:43.787Z,101199.41
2023-04-09T07:37:10.763Z,101200.52
2023-04-09T07:39:37.213Z,101201.36
2023-04-09T07:42:04.670Z,101207.88
2023-04-09T07:44:35.786Z,101206.43
2023-04-09T07:47:03.471Z,101204.27
2023-04-09T07:49:30.045Z,101206.41
2023-04-09T07:51:57.103Z,101202.98
2023-04-09T07:54:24.448Z,101200.06
2023-04-09T07:56:51.251Z,101207.17
2023-04-09T07:59:17.642Z,101206.86
2023-04-09T08:01:44.280Z,101210.28
2023-04-09T08:04:12.277Z,101209.27
2023-04-09T08:06:38.894Z,101207.83
2023-04-09T08:09:05.697Z,101211.09
2023-04-09T08:11:32.678Z,101209.73
2023-04-09T08:14:02.197Z,101208.86
2023-04-09T08:16:29.544Z,101208.84
2023-04-09T08:18:56.911Z,101207.00
2023-04-09T08:21:23.663Z,101207.26
2023-04-09T08:23:50.534Z,101207.23
2023-04-09T08:26:17.248Z,101209.14
2023-04-09T08:28:43.583Z,101207.55
2023-04-09T08:31:09.911Z,101206.52
2023-04-09T08:33:36.288Z,101207.80
2023-04-09T08:36:07.721Z,101210.47
2023-04-09T08:38:34.118Z,101203.52
2023-04-09T08:41:00.466Z,101204.98
2023-04-09T08:43:42.012Z,101203.95
2023-04-09T08:46:18.261Z,101205.70
2023-04-09T08:48:46.242Z,101205.18
2023-04-09T08:51:17.041Z,101201.73
2023-04-09T08:53:49.751Z,101201.02
2023-04-09T08:56:16.351Z,101199.48
2023-04-09T08:58:44.112Z,101201.48
2023-04-09T09:01:27.924Z,101198.58
2023-04-09T09:03:58.348Z,101203.14
2023-04-09T09:06:31.983Z,101200.81
2023-04-09T09:09:15.668Z,101205.20
2023-04-09T09:11:44.251Z,101203.27
2023-04-09T09:14:12.950Z,101203.58
2023-04-09T09:16:44.347Z,101198.84
2023-04-09T09:19:26.309Z,101210.27
2023-04-09T09:21:59.816Z,101211.75
2023-04-09T09:24:26.843Z,101211.23
2023-04-09T09:26:53.899Z,101210.02
2023-04-09T09:29:20.642Z,101214.44
2023-04-09T09:31:52.174Z,101214.73
2023-04-09T09:34:24.122Z,101212.05
2023-04-09T09:36:50.559Z,101215.02
2023-04-09T09:39:17.126Z,101218.52
2023-04-09T09:41:45.305Z,101219.34
2023-04-09T09:44:30.615Z,101216.65
2023-04-09T09:46:58.254Z,101218.62
2023-04-09T09:49:24.654Z,101213.63
2023-04-09T09:51:55.923Z,101214.80
2023-04-09T09:54:25.697Z,101213.95
2023-04-09T09:56:57.424Z,101214.63
2023-04-09T09:59:29.890Z,101212.40
2023-04-09T10:02:00.680Z,101209.79
2023-04-09T10:04:30.814Z,101208.53
2023-04-09T10:06:57.493Z,101208.05
2023-04-09T10:09:27.314Z,101207.65
2023-04-09T10:11:57.288Z,101205.88
2023-04-09T10:14:25.647Z,101208.33
2023-04-09T10:16:52.714Z,101201.80
2023-04-09T10:19:20.056Z,101197.52
2023-04-09T10:22:01.957Z,101199.59
2023-04-09T10:24:28.495Z,101201.23
2023-04-09T10:26:57.610Z,101195.66
2023-04-09T10:29:28.464Z,101191.61
2023-04-09T10:32:06.386Z,101192.30
2023-04-09T10:34:42.229Z,101192.48
2023-04-09T10:37:14.192Z,101193.84
2023-04-09T10:39:44.969Z,101193.67
2023-04-09T10:42:15.517Z,101200.11
2023-04-09T10:44:42.260Z,101193.01
2023-04-09T10:47:09.549Z,101193.14
2023-04-09T10:49:40.576Z,101192.39
2023-04-09T10:52:13.013Z,101187.34
2023-04-09T10:54:45.335Z,101185.58
2023-04-09T10:57:17.103Z,101183.42
2023-04-09T10:59:46.498Z,101180.08
2023-04-09T11:02:31.259Z,101182.08
2023-04-09T11:05:17.725Z,101181.48
2023-04-09T11:07:49.022Z,101187.30
2023-04-09T11:10:15.452Z,101182.40
2023-04-09T11:12:42.356Z,101177.35
2023-04-09T11:15:17.615Z,101181.06
2023-04-09T11:17:45.868Z,101184.02
2023-04-09T11:20:14.517Z,101183.10
2023-04-09T11:22:40.940Z,101183.95
2023-04-09T11:25:07.733Z,101179.76
2023-04-09T11:27:38.356Z,101178.65
2023-04-09T11:30:05.757Z,101176.00
2023-04-09T11:32:33.077Z,101171.38
2023-04-09T11:34:59.500Z,101168.64
2023-04-09T11:37:26.155Z,101167.23
2023-04-09T11:39:55.609Z,101164.98
2023-04-09T11:42:25.139Z,101166.69
2023-04-09T11:44:53.174Z,101163.41
2023-04-09T11:47:20.507Z,101164.71
2023-04-09T11:49:47.287Z,101167.09
2023-04-09T11:52:15.926Z,101170.41
2023-04-09T11:54:47.486Z,101168.03
2023-04-09T11:57:13.829Z,101168.16
2023-04-09T11:59:40.597Z,101168.08
2023-04-09T12:02:07.549Z,101167.25
2023-04-09T12:04:34.276Z,101164.48
2023-04-09T12:07:00.908Z,101162.38
2023-04-09T12:09:27.322Z,101165.27
2023-04-09T12:11:53.630Z,101166.64
2023-04-09T12:14:21.253Z,101164.70
2023-04-09T12:16:51.502Z,101165.65
2023-04-09T12:19:19.807Z,101171.57
2023-04-09T12:21:55.139Z,101169.81
2023-04-09T12:24:25.465Z,101169.13
2023-04-09T12:26:52.178Z,101167.79
2023-04-09T12:29:20.003Z,101169.86
2023-04-09T12:31:47.526Z,101170.90
2023-04-09T12:34:13.892Z,101174.48
2023-04-09T12:36:43.454Z,101173.90
2023-04-09T12:39:10.082Z,101172.98
2023-04-09T12:41:36.845Z,101171.35
2023-04-09T12:44:04.350Z,101169.23
2023-04-09T12:46:31.680Z,101169.65
2023-04-09T12:48:58.024Z,101169.49
2023-04-09T12:51:25.176Z,101164.82
2023-04-09T12:53:51.878Z,101162.69
2023-04-09T12:56:18.570Z,101165.21
2023-04-09T12:58:44.988Z,101158.68
2023-04-09T13:01:11.488Z,101159.16
2023-04-09T13:03:40.534Z,101158.05
2023-04-09T13:06:07.198Z,101155.02
2023-04-09T13:08:33.575Z,101148.72
2023-04-09T13:11:00.209Z,101145.70
2023-04-09T13:13:28.052Z,101143.23
2023-04-09T13:15:54.382Z,101140.27
2023-04-09T13:18:21.259Z,101140.39
2023-04-09T13:20:47.633Z,101138.30
2023-04-09T13:23:13.953Z,101137.19
2023-04-09T13:25:40.290Z,101134.93
2023-04-09T13:28:06.773Z,101130.91
2023-04-09T13:30:33.222Z,101132.95
2023-04-09T13:33:00.215Z,101134.53
2023-04-09T13:35:26.752Z,101136.15
2023-04-09T13:37:54.097Z,101130.25
2023-04-09T13:40:20.388Z,101135.77
2023-04-09T13:42:46.784Z,101134.00
2023-04-09T13:45:13.449Z,101133.59
2023-04-09T13:47:40.522Z,101131.02
2023-04-09T13:50:09.562Z,101133.00
2023-04-09T13:52:35.878Z,101132.02
2023-04-09T13:55:03.218Z,101130.55
2023-04-09T13:57:29.556Z,101131.90
2023-04-09T13:59:55.879Z,101129.05
2023-04-09T14:02:22.990Z,101126.83
2023-04-09T14:04:49.521Z,101123.42
2023-04-09T14:07:16.101Z,101124.35
2023-04-09T14:09:43.297Z,101118.16
2023-04-09T14:12:10.088Z,101116.94
2023-04-09T14:14:36.399Z,101114.78
2023-04-09T14:17:02.678Z,101114.64
2023-04-09T14:19:29.076Z,101114.22
2023-04-09T14:21:55.594Z,101113.70
2023-04-09T14:24:22.511Z,101113.02
2023-04-09T14:26:50.744Z,101110.58
2023-04-09T14:29:17.154Z,101111.41
2023-04-09T14:31:43.716Z,101103.70
2023-04-09T14:34:10.216Z,101101.27
2023-04-09T14:36:36.532Z,101102.77
2023-04-09T14:39:02.874Z,101103.50
2023-04-09T14:41:29.305Z,101102.42
2023-04-09T14:43:55.621Z,101096.73
2023-04-09T14:46:21.997Z,101095.86
2023-04-09T14:48:48.469Z,101094.92
2023-04-09T14:51:15.279Z,101092.63
2023-04-09T14:53:41.829Z,101093.55
2023-04-09T14:56:08.302Z,101092.56
2023-04-09T14:58:35.699Z,101095.20
2023-04-09T15:01:03.548Z,101094.80
2023-04-09T15:03:30.438Z,101093.54
2023-04-09T15:05:58.619Z,101090.76
2023-04-09T15:08:24.915Z,101088.73
2023-04-09T15:10:51.400Z,101087.58
2023-04-09T15:13:17.952Z,101086.82
2023-04-09T15:15:44.654Z,101088.67
2023-04-09T15:18:11.040Z,101090.75
2023-04-09T15:20:42.730Z,101087.29
2023-04-09T15:23:10.158Z,101089.64
2023-04-09T15:25:37.046Z,101091.15
2023-04-09T15:28:04.838Z,101090.08
2023-04-09T15:30:31.291Z,101090.79
2023-04-09T15:32:57.729Z,101093.20
2023-04-09T15:35:28.535Z,101096.71
2023-04-09T15:37:58.207Z,101095.36
2023-04-09T15:40:24.609Z,101095.73
2023-04-09T15:42:50.970Z,101100.98
2023-04-09T15:45:17.494Z,101101.48
2023-04-09T15:47:44.470Z,101099.45
2023-04-09T15:50:11.113Z,101098.52
2023-04-09T15:52:37.633Z,101099.16
2023-04-09T15:55:04.872Z,101097.61
2023-04-09T15:57:31.566Z,101101.14
2023-04-09T15:59:58.320Z,101101.86
2023-04-09T16:02:26.130Z,101103.66
2023-04-09T16:04:52.636Z,101105.20
2023-04-09T16:07:18.994Z,101106.20
2023-04-09T16:09:46.011Z,101109.13
2023-04-09T16:12:12.712Z,101106.14
2023-04-09T16:14:39.752Z,101106.62
2023-04-09T16:17:06.456Z,101107.18
2023-04-09T16:19:32.923Z,101111.94
2023-04-09T16:21:59.344Z,101109.38
2023-04-09T16:24:26.391Z,101113.20
2023-04-09T16:26:52.681Z,101111.45
2023-04-09T16:29:19.065Z,101110.52
2023-04-09T16:31:45.519Z,101106.66
2023-04-09T16:34:11.863Z,101112.55
2023-04-09T16:36:40.415Z,101111.68
2023-04-09T16:39:07.134Z,101110.30
2023-04-09T16:41:34.917Z,101108.74
2023-04-09T16:44:03.187Z,101109.25
2023-04-09T16:46:29.997Z,101112.91
2023-04-09T16:48:56.646Z,101119.06
2023-04-09T16:51:23.014Z,101118.91
2023-04-09T16:53:49.776Z,101126.83
2023-04-09T16:56:16.781Z,101126.60
2023-04-09T16:58:43.994Z,101121.88
2023-04-09T17:01:10.442Z,101126.08
2023-04-09T17:03:37.497Z,101130.23
2023-04-09T17:06:04.310Z,101134.09
2023-04-09T17:08:30.689Z,101135.83
2023-04-09T17:11:01.436Z,101142.35
2023-04-09T17:13:29.191Z,101143.48
2023-04-09T17:15:56.342Z,101142.52
2023-04-09T17:18:23.383Z,101143.00
2023-04-09T17:20:50.515Z,101147.04
2023-04-09T17:23:17.016Z,101148.55
2023-04-09T17:25:43.734Z,101146.30
2023-04-09T17:28:10.271Z,101145.86
2023-04-09T17:30:36.667Z,101151.60
2023-04-09T17:33:03.103Z,101154.06
2023-04-09T17:35:29.658Z,101154.31
2023-04-09T17:37:56.245Z,101155.13
2023-04-09T17:40:22.574Z,101158.70
2023-04-09T17:42:49.261Z,101159.07
2023-04-09T17:45:16.030Z,101160.23
2023-04-09T17:47:42.607Z,101163.00
2023-04-09T17:50:09.160Z,101163.98
2023-04-09T17:52:39.337Z,101166.20
2023-04-09T17:55:07.557Z,101166.70
2023-04-09T17:57:35.131Z,101171.33
2023-04-09T18:00:03.688Z,101174.50
2023-04-09T18:02:31.644Z,101177.39
2023-04-09T18:04:59.849Z,101178.32
2023-04-09T18:07:32.502Z,101176.77
2023-04-09T18:10:00.466Z,101178.58
2023-04-09T18:12:27.350Z,101183.85
2023-04-09T18:14:53.709Z,101187.55
2023-04-09T18:17:20.154Z,101185.95
2023-04-09T18:19:47.164Z,101188.86
2023-04-09T18:22:13.572Z,101189.27
2023-04-09T18:24:40.737Z,101193.88
2023-04-09T18:27:07.122Z,101196.88
2023-04-09T18:29:33.494Z,101202.61
2023-04-09T18:32:00.227Z,101204.17
2023-04-09T18:34:27.114Z,101208.23
2023-04-09T18:36:54.203Z,101211.13
2023-04-09T18:39:22.087Z,101218.30
2023-04-09T18:41:48.589Z,101213.81
2023-04-09T18:44:15.916Z,101217.67
2023-04-09T18:46:42.729Z,101219.82
2023-04-09T18:49:09.253Z,101218.46
2023-04-09T18:51:35.663Z,101223.13
2023-04-09T18:54:02.121Z,101223.35
2023-04-09T18:56:28.689Z,101219.83
2023-04-09T18:58:55.696Z,101221.53
2023-04-09T19:01:22.395Z,101221.07
2023-04-09T19:03:49.381Z,101220.09
2023-04-09T19:06:18.469Z,101217.38
2023-04-09T19:08:45.981Z,101216.18
2023-04-09T19:11:13.031Z,101215.79
2023-04-09T19:13:39.840Z,101218.38
2023-04-09T19:16:08.505Z,101217.61
2023-04-09T19:18:35.883Z,101218.34
2023-04-09T19:21:02.742Z,101215.10
2023-04-09T19:23:29.982Z,101217.26
2023-04-09T19:25:56.742Z,101214.66
2023-04-09T19:28:23.548Z,101217.39
2023-04-09T19:30:51.849Z,101211.98
2023-04-09T19:33:23.111Z,101219.42
2023-04-09T19:35:50.616Z,101221.38
2023-04-09T19:38:18.382Z,101218.23
2023-04-09T19:40:45.608Z,101221.73
2023-04-09T19:43:12.991Z,101220.87
2023-04-09T19:45:42.109Z,101220.22
2023-04-09T19:48:09.100Z,101218.96
2023-04-09T19:50:42.755Z,101216.94
2023-04-09T19:53:10.203Z,101216.05
2023-04-09T19:55:36.910Z,101216.58
2023-04-09T19:58:05.003Z,101218.77
2023-04-09T20:00:32.966Z,101219.18
2023-04-09T20:03:00.015Z,101214.95
2023-04-09T20:05:27.196Z,101218.36
2023-04-09T20:07:54.147Z,101215.70
2023-04-09T20:10:20.532Z,101214.14
2023-04-09T20:12:48.238Z,101213.70
2023-04-09T20:15:16.736Z,101213.12
2023-04-09T20:17:43.125Z,101210.23
2023-04-09T20:20:11.387Z,101213.23
2023-04-09T20:22:42.280Z,101217.83
2023-04-09T20:25:12.197Z,101220.44
2023-04-09T20:27:38.916Z,101218.16
2023-04-09T20:30:06.441Z,101218.95
2023-04-09T20:32:35.062Z,101217.95
2023-04-09T20:35:01.410Z,101216.70
2023-04-09T20:37:27.835Z,101221.90
2023-04-09T20:39:54.187Z,101224.39
2023-04-09T20:42:20.509Z,101222.67
2023-04-09T20:44:46.835Z,101218.68
2023-04-09T20:47:14.707Z,101222.79
2023-04-09T20:49:42.348Z,101221.09
2023-04-09T20:52:09.529Z,101219.58
2023-04-09T20:54:36.016Z,101222.78
2023-04-09T20:57:04.868Z,101220.30
2023-04-09T20:59:32.686Z,101218.83
2023-04-09T21:01:59.142Z,101216.77
2023-04-09T21:04:25.714Z,101217.34
2023-04-09T21:06:52.359Z,101212.64
2023-04-09T21:09:18.714Z,101212.06
2023-04-09T21:11:45.449Z,101212.36
2023-04-09T21:14:13.841Z,101215.33
2023-04-09T21:16:40.549Z,101212.98
2023-04-09T21:19:06.960Z,101214.30
2023-04-09T21:21:34.817Z,101214.33
2023-04-09T21:24:01.226Z,101219.42
2023-04-09T21:26:29.095Z,101215.41
2023-04-09T21:29:01.000Z,101218.05
2023-04-09T21:31:27.455Z,101218.81
2023-04-09T21:33:53.859Z,101222.91
2023-04-09T21:36:20.675Z,101222.27
2023-04-09T21:38:47.075Z,101223.02
2023-04-09T21:41:13.405Z,101223.59
2023-04-09T21:43:39.759Z,101224.30
2023-04-09T21:46:06.295Z,101223.27
2023-04-09T21:48:32.826Z,101221.36
2023-04-09T21:50:59.371Z,101217.64
2023-04-09T21:53:26.407Z,101217.05
2023-04-09T21:55:52.773Z,101224.50
2023-04-09T21:58:19.074Z,101220.71
2023-04-09T22:00:46.097Z,101221.92
2023-04-09T22:03:12.710Z,101224.00
2023-04-09T22:05:39.167Z,101222.16
2023-04-09T22:08:06.571Z,101223.63
2023-04-09T22:10:32.960Z,101220.89
2023-04-09T22:12:59.277Z,101218.52
2023-04-09T22:15:25.693Z,101217.58
2023-04-09T22:17:52.144Z,101224.10
2023-04-09T22:20:18.489Z,101224.73
2023-04-09T22:22:45.208Z,101224.20
2023-04-09T22:25:12.222Z,101228.70
2023-04-09T22:27:38.699Z,101225.83
2023-04-09T22:30:05.762Z,101233.76
2023-04-09T22:32:32.716Z,101232.47
2023-04-09T22:34:59.036Z,101231.02
2023-04-09T22:37:25.341Z,101228.89
2023-04-09T22:39:51.633Z,101229.67
2023-04-09T22:42:18.155Z,101225.48
2023-04-09T22:44:44.542Z,101223.11
2023-04-09T22:47:11.162Z,101221.73
2023-04-09T22:49:38.127Z,101225.17
2023-04-09T22:52:05.069Z,101222.74
2023-04-09T22:54:31.385Z,101224.84
2023-04-09T22:56:57.788Z,101225.57
2023-04-09T22:59:30.449Z,101225.34
2023-04-09T23:02:05.602Z,101227.48
2023-04-09T23:04:33.483Z,101224.23
2023-04-09T23:07:00.214Z,101229.27
2023-04-09T23:09:26.619Z,101230.64
2023-04-09T23:11:52.916Z,101233.52
2023-04-09T23:14:19.217Z,101233.86
2023-04-09T23:16:45.688Z,101230.51
2023-04-09T23:19:11.980Z,101229.06
2023-04-09T23:21:38.306Z,101229.61
2023-04-09T23:24:04.894Z,101228.03
2023-04-09T23:26:32.081Z,101227.11
2023-04-09T23:28:58.461Z,101229.08
2023-04-09T23:31:25.049Z,101226.85
2023-04-09T23:33:51.888Z,101227.86
2023-04-09T23:36:18.434Z,101227.61
2023-04-09T23:38:46.344Z,101225.45
2023-04-09T23:41:16.004Z,101226.25
2023-04-09T23:43:42.312Z,101222.23
2023-04-09T23:46:08.733Z,101219.55
2023-04-09T23:48:35.565Z,101213.23
2023-04-09T23:51:01.911Z,101217.23
2023-04-09T23:53:28.402Z,101216.82
2023-04-09T23:55:54.762Z,101215.30
2023-04-09T23:58:21.691Z,101216.20
